Time;durP1;ratioP1;P1;durP2;ratioP2;P2;SDS_P1;SDS_P2;PMS_P1;PMS_P2;Temp;Humidity;BMP_temperature;BMP_pressure;BME280_temperature;BME280_humidity;BME280_pressure;Samples;Min_cycle;Max_cycle;Signal;HPM_P1;HPM_P2
2022/07/08 00:00:40;;;;;;;3.13;1.30;;;;;;;16.23;58.34;102233.22;4967697;28;20393;-67
2022/07/08 00:03:06;;;;;;;4.18;1.65;;;;;;;16.24;58.54;102232.25;4947911;28;20036;-68
2022/07/08 00:05:31;;;;;;;5.47;1.20;;;;;;;16.20;58.71;102228.16;4984380;28;20390;-66
2022/07/08 00:07:56;;;;;;;2.53;1.30;;;;;;;16.18;58.88;102233.66;4951856;28;20017;-68
2022/07/08 00:10:22;;;;;;;5.38;1.50;;;;;;;16.14;58.85;102232.22;4951626;28;20084;-66
2022/07/08 00:12:47;;;;;;;3.08;1.30;;;;;;;16.10;58.84;102229.00;4959982;28;20829;-67
2022/07/08 00:15:13;;;;;;;4.38;1.30;;;;;;;16.18;58.18;102232.81;4973473;28;20010;-67
2022/07/08 00:17:39;;;;;;;5.35;1.67;;;;;;;16.05;58.35;102225.91;4966114;28;20262;-67
2022/07/08 00:20:05;;;;;;;4.35;1.38;;;;;;;15.99;58.19;102231.78;4950262;28;20049;-66
2022/07/08 00:22:30;;;;;;;3.53;1.40;;;;;;;15.95;58.45;102230.38;4966340;28;20026;-67
2022/07/08 00:24:55;;;;;;;4.68;1.80;;;;;;;15.98;58.53;102224.75;4984359;28;20057;-67
2022/07/08 00:27:21;;;;;;;4.75;1.33;;;;;;;15.94;58.81;102223.31;4948854;28;20014;-68
2022/07/08 00:29:46;;;;;;;3.25;1.33;;;;;;;15.92;58.98;102227.94;4973619;28;20051;-68
2022/07/08 00:32:12;;;;;;;5.57;1.30;;;;;;;15.88;59.08;102222.03;4985895;28;20030;-67
2022/07/08 00:34:37;;;;;;;3.70;1.35;;;;;;;15.90;58.78;102221.91;4991856;28;20493;-67
2022/07/08 00:37:03;;;;;;;3.75;1.20;;;;;;;15.87;58.65;102225.69;4966431;28;20005;-68
2022/07/08 00:39:28;;;;;;;3.28;1.27;;;;;;;15.86;58.83;102231.16;4964907;28;20026;-67
2022/07/08 00:41:54;;;;;;;3.58;1.23;;;;;;;15.90;58.56;102225.41;4966096;28;20018;-66
2022/07/08 00:44:19;;;;;;;2.85;1.27;;;;;;;15.95;58.58;102222.34;4976423;28;20022;-67
2022/07/08 00:46:44;;;;;;;2.25;1.13;;;;;;;15.89;58.41;102221.06;4972077;28;20518;-67
2022/07/08 00:49:10;;;;;;;2.33;1.02;;;;;;;15.80;58.42;102227.22;4965829;28;20026;-67
2022/07/08 00:51:35;;;;;;;3.35;1.10;;;;;;;15.78;58.98;102229.16;4964422;28;20028;-68
2022/07/08 00:54:01;;;;;;;2.78;1.23;;;;;;;15.83;58.70;102232.28;4964984;28;20034;-67
2022/07/08 00:56:27;;;;;;;2.83;1.35;;;;;;;15.74;59.11;102231.22;4967386;28;20384;-68
2022/07/08 00:58:53;;;;;;;5.82;1.40;;;;;;;15.78;59.65;102237.16;4966590;28;20124;-67
2022/07/08 01:01:18;;;;;;;4.57;1.40;;;;;;;15.76;60.03;102237.25;4964900;28;20017;-69
2022/07/08 01:03:44;;;;;;;2.47;1.20;;;;;;;15.69;59.68;102243.28;4969389;28;20049;-67
2022/07/08 01:06:09;;;;;;;3.17;1.30;;;;;;;15.72;59.88;102233.22;4971748;28;20020;-68
2022/07/08 01:08:35;;;;;;;3.28;1.35;;;;;;;15.72;60.11;102235.88;4966546;28;20842;-67
2022/07/08 01:11:00;;;;;;;6.03;1.40;;;;;;;15.72;60.16;102241.22;4984049;28;21024;-68
2022/07/08 01:13:25;;;;;;;4.00;1.20;;;;;;;15.69;60.01;102244.13;4984598;28;20045;-67
2022/07/08 01:15:51;;;;;;;3.55;1.25;;;;;;;15.78;60.62;102251.34;4957781;28;20080;-69
2022/07/08 01:18:26;;;;;;;3.40;1.20;;;;;;;15.75;60.65;102251.63;4983755;28;20322;-67
2022/07/08 01:20:52;;;;;;;4.80;1.48;;;;;;;15.69;60.52;102252.13;4944860;28;20037;-68
2022/07/08 01:23:17;;;;;;;2.63;1.30;;;;;;;15.74;60.70;102249.09;4927273;28;20659;-67
2022/07/08 01:25:43;;;;;;;4.22;1.50;;;;;;;15.73;60.80;102258.88;4947425;28;20815;-67
2022/07/08 01:28:08;;;;;;;5.38;1.52;;;;;;;15.69;61.12;102251.28;4926883;28;21039;-67
2022/07/08 01:30:34;;;;;;;6.50;1.80;;;;;;;15.71;60.99;102247.53;4942774;28;20049;-67
2022/07/08 01:32:59;;;;;;;3.05;1.17;;;;;;;15.60;60.95;102252.94;4962423;28;20042;-68
2022/07/08 01:35:24;;;;;;;4.28;1.50;;;;;;;15.61;61.25;102255.47;4965239;28;20022;-67
2022/07/08 01:37:50;;;;;;;3.85;1.25;;;;;;;15.58;61.18;102249.53;4963734;28;20324;-68
2022/07/08 01:40:15;;;;;;;5.10;1.42;;;;;;;15.58;61.67;102260.22;4963563;28;20021;-68
2022/07/08 01:42:41;;;;;;;4.75;1.20;;;;;;;15.65;61.79;102252.53;4960775;28;20010;-68
2022/07/08 01:45:06;;;;;;;3.22;1.58;;;;;;;15.60;61.57;102247.59;4977175;28;20014;-68
2022/07/08 01:47:32;;;;;;;3.05;1.25;;;;;;;15.67;61.81;102242.59;4939938;28;20733;-69
2022/07/08 01:49:57;;;;;;;4.70;1.70;;;;;;;15.69;62.19;102253.97;4941174;28;20022;-67
2022/07/08 01:52:23;;;;;;;3.10;1.42;;;;;;;15.62;62.11;102249.16;4961339;28;20053;-67
2022/07/08 01:54:50;;;;;;;4.22;1.40;;;;;;;15.65;62.11;102250.69;4965280;28;20451;-67
2022/07/08 01:57:15;;;;;;;6.03;1.52;;;;;;;15.58;61.92;102244.22;4927412;28;20018;-68
2022/07/08 01:59:45;;;;;;;3.65;1.17;;;;;;;15.61;62.02;102238.63;4929548;28;20022;-67
2022/07/08 02:02:11;;;;;;;4.65;1.70;;;;;;;15.64;61.79;102241.03;4969313;28;20897;-67
2022/07/08 02:04:36;;;;;;;2.58;1.10;;;;;;;15.66;62.16;102244.41;4967404;28;20061;-68
2022/07/08 02:07:02;;;;;;;3.47;1.35;;;;;;;15.66;62.42;102241.72;4979206;28;20010;-68
2022/07/08 02:09:27;;;;;;;1.50;1.00;;;;;;;15.70;62.09;102248.50;4988435;28;20856;-66
2022/07/08 02:14:37;;;;;;;5.70;1.48;;;;;;;15.76;62.24;102252.44;4970818;28;20040;-66
2022/07/08 02:17:03;;;;;;;3.88;1.23;;;;;;;15.65;61.85;102256.03;4952888;28;20280;-68
2022/07/08 02:19:29;;;;;;;2.28;1.15;;;;;;;15.63;62.02;102250.00;4965484;28;20129;-67
2022/07/08 02:21:54;;;;;;;6.50;1.27;;;;;;;15.67;62.00;102253.25;4961627;28;20014;-68
2022/07/08 02:24:20;;;;;;;6.07;1.33;;;;;;;15.62;61.41;102243.84;4983305;28;20267;-67
2022/07/08 02:26:45;;;;;;;6.10;1.52;;;;;;;15.60;61.34;102248.44;4979913;28;20010;-68
2022/07/08 02:29:10;;;;;;;8.65;1.70;;;;;;;15.58;61.62;102247.75;4980565;28;20784;-66
2022/07/08 02:31:36;;;;;;;3.72;1.45;;;;;;;15.46;61.92;102241.63;4978262;28;20033;-69
2022/07/08 02:34:01;;;;;;;5.13;1.63;;;;;;;15.47;61.76;102245.16;4985691;28;20041;-68
2022/07/08 02:36:27;;;;;;;2.78;1.25;;;;;;;15.46;61.68;102249.63;4982773;28;20857;-67
2022/07/08 02:38:52;;;;;;;5.18;1.50;;;;;;;15.43;62.26;102243.72;4968528;28;20010;-66
2022/07/08 02:41:18;;;;;;;3.88;1.35;;;;;;;15.54;62.51;102248.97;4964007;28;20943;-68
2022/07/08 02:43:43;;;;;;;2.85;1.13;;;;;;;15.44;62.56;102246.25;4968181;28;20104;-66
2022/07/08 02:46:09;;;;;;;3.90;1.38;;;;;;;15.45;62.65;102250.63;4967471;28;20010;-67
2022/07/08 02:48:34;;;;;;;6.18;1.40;;;;;;;15.39;62.85;102245.81;4986069;28;20079;-66
2022/07/08 02:50:59;;;;;;;3.42;1.52;;;;;;;15.48;63.41;102252.16;4950066;28;20912;-67
2022/07/08 02:53:25;;;;;;;5.05;1.65;;;;;;;15.49;63.00;102245.03;4947289;28;21120;-66
2022/07/08 02:55:50;;;;;;;5.20;1.35;;;;;;;15.46;63.29;102252.28;4980451;28;20022;-67
2022/07/08 02:58:16;;;;;;;5.07;1.55;;;;;;;15.41;62.99;102249.19;4969146;28;20017;-66
2022/07/08 03:00:41;;;;;;;4.13;1.40;;;;;;;15.48;63.09;102254.00;4981346;28;20006;-67
2022/07/08 03:03:06;;;;;;;4.00;1.45;;;;;;;15.52;63.40;102252.75;4985282;28;20090;-66
2022/07/08 03:05:32;;;;;;;6.18;1.50;;;;;;;15.53;62.99;102246.44;4964530;28;20586;-68
2022/07/08 03:07:57;;;;;;;4.78;1.90;;;;;;;15.45;63.13;102249.75;4950494;28;20030;-67
2022/07/08 03:10:23;;;;;;;2.05;1.20;;;;;;;15.40;62.98;102252.84;4982880;28;20437;-67
2022/07/08 03:12:48;;;;;;;4.32;1.40;;;;;;;15.44;63.39;102258.72;4986278;28;20099;-66
2022/07/08 03:15:13;;;;;;;2.45;1.30;;;;;;;15.50;63.43;102255.56;4962493;28;20014;-67
2022/07/08 03:17:39;;;;;;;5.80;1.60;;;;;;;15.42;63.34;102264.19;4963245;28;20476;-66
2022/07/08 03:20:05;;;;;;;4.05;1.38;;;;;;;15.33;63.10;102258.81;4961733;28;20532;-67
2022/07/08 03:22:31;;;;;;;4.22;1.58;;;;;;;15.31;63.11;102266.94;4985552;28;20872;-66
2022/07/08 03:24:56;;;;;;;3.80;1.30;;;;;;;15.31;62.91;102269.59;4982457;28;20046;-67
2022/07/08 03:27:21;;;;;;;3.88;1.30;;;;;;;15.33;62.45;102273.00;4969870;28;20508;-67
2022/07/08 03:29:47;;;;;;;7.70;1.50;;;;;;;15.35;62.72;102267.53;4963889;28;20825;-68
2022/07/08 03:32:12;;;;;;;3.75;1.48;;;;;;;15.30;62.36;102262.59;4990101;28;20026;-67
2022/07/08 03:34:38;;;;;;;8.02;1.65;;;;;;;15.33;62.42;102265.00;4988356;28;20022;-67
2022/07/08 03:37:03;;;;;;;4.35;1.60;;;;;;;15.43;62.65;102265.91;4987470;28;20006;-69
2022/07/08 03:39:28;;;;;;;4.70;1.50;;;;;;;15.35;62.77;102263.03;4978739;28;20960;-67
2022/07/08 03:41:54;;;;;;;3.85;1.48;;;;;;;15.33;63.06;102267.69;4970456;28;20204;-67
2022/07/08 03:44:19;;;;;;;5.68;1.27;;;;;;;15.31;62.47;102274.09;4984885;28;20427;-68
2022/07/08 03:46:45;;;;;;;3.42;1.40;;;;;;;15.25;63.04;102276.31;5000123;28;20017;-67
2022/07/08 03:49:10;;;;;;;4.93;1.70;;;;;;;15.39;62.57;102272.47;4990976;28;20014;-69
2022/07/08 03:51:35;;;;;;;5.47;1.48;;;;;;;15.45;62.10;102271.97;4984155;28;20033;-68
2022/07/08 03:54:01;;;;;;;3.85;1.50;;;;;;;15.42;62.34;102272.22;4982489;28;20041;-68
2022/07/08 03:56:26;;;;;;;4.35;1.40;;;;;;;15.40;62.30;102271.50;4968443;28;21088;-68
2022/07/08 03:58:52;;;;;;;8.48;1.80;;;;;;;15.45;62.07;102271.09;4980489;28;20090;-67
2022/07/08 04:01:17;;;;;;;4.13;1.55;;;;;;;15.44;62.74;102272.06;4987842;28;20826;-66
2022/07/08 04:03:43;;;;;;;2.90;1.30;;;;;;;15.39;61.98;102272.47;4982305;28;20037;-66
2022/07/08 04:06:09;;;;;;;6.72;1.55;;;;;;;15.33;62.82;102281.00;4998034;28;20403;-66
2022/07/08 04:08:34;;;;;;;2.97;1.30;;;;;;;15.47;62.97;102279.84;4983538;28;20048;-66
2022/07/08 04:11:00;;;;;;;4.97;1.42;;;;;;;15.40;62.48;102284.84;4965135;28;20029;-67
2022/07/08 04:13:27;;;;;;;3.60;1.13;;;;;;;15.38;63.00;102292.13;4980964;28;20034;-65
2022/07/08 04:15:53;;;;;;;5.25;1.48;;;;;;;15.44;62.88;102283.63;4963791;28;20208;-66
2022/07/08 04:18:19;;;;;;;3.72;1.48;;;;;;;15.51;62.69;102283.94;4966319;28;20779;-67
2022/07/08 04:20:44;;;;;;;3.75;1.20;;;;;;;15.61;62.73;102286.66;4954128;28;20084;-66
2022/07/08 04:23:10;;;;;;;3.65;1.50;;;;;;;15.53;62.98;102283.81;4988170;28;20165;-68
2022/07/08 04:25:36;;;;;;;4.60;1.38;;;;;;;15.60;62.91;102298.31;4975651;28;20030;-68
2022/07/08 04:28:01;;;;;;;5.40;1.42;;;;;;;15.58;62.78;102298.44;4948836;28;20017;-68
2022/07/08 04:30:27;;;;;;;4.50;1.48;;;;;;;15.58;62.08;102297.56;4966654;28;20669;-67
2022/07/08 04:32:52;;;;;;;4.60;1.70;;;;;;;15.61;62.44;102298.16;4983805;28;20305;-66
2022/07/08 04:35:17;;;;;;;6.45;1.92;;;;;;;15.63;63.00;102300.72;4981408;28;20037;-67
2022/07/08 04:37:43;;;;;;;5.07;1.30;;;;;;;15.65;62.86;102293.41;4982486;28;20515;-65
2022/07/08 04:40:09;;;;;;;3.40;1.30;;;;;;;15.65;62.50;102297.91;4976305;28;20095;-66
2022/07/08 04:42:34;;;;;;;6.55;1.65;;;;;;;15.65;61.99;102303.25;4979127;28;20345;-67
2022/07/08 04:45:00;;;;;;;3.88;1.52;;;;;;;15.69;62.31;102299.34;4979747;28;20335;-66
2022/07/08 04:47:25;;;;;;;3.50;1.48;;;;;;;15.75;62.58;102299.66;4963461;28;20198;-67
2022/07/08 04:49:51;;;;;;;5.43;1.63;;;;;;;15.86;62.11;102292.56;4979580;28;20992;-66
2022/07/08 04:52:16;;;;;;;2.72;1.38;;;;;;;15.88;62.43;102293.28;4928499;28;20240;-66
2022/07/08 04:54:42;;;;;;;5.25;1.40;;;;;;;15.91;62.40;102301.03;4950028;28;20929;-66
2022/07/08 04:57:07;;;;;;;3.78;1.60;;;;;;;15.98;62.55;102304.84;4962715;28;20046;-66
2022/07/08 04:59:33;;;;;;;7.85;2.10;;;;;;;16.10;62.27;102302.91;4965621;28;20099;-65
2022/07/08 05:01:58;;;;;;;5.38;1.75;;;;;;;16.04;62.07;102317.66;4943552;28;20010;-67
2022/07/08 05:04:24;;;;;;;6.38;1.77;;;;;;;16.10;62.61;102322.47;4964647;28;20018;-67
2022/07/08 05:06:49;;;;;;;5.68;1.70;;;;;;;16.20;62.74;102321.66;4975192;28;20018;-66
2022/07/08 05:09:15;;;;;;;6.22;1.38;;;;;;;16.16;63.46;102320.22;4949001;28;20033;-66
2022/07/08 05:11:40;;;;;;;4.03;1.55;;;;;;;16.12;63.25;102323.16;4965289;28;20021;-66
2022/07/08 05:14:05;;;;;;;4.50;1.70;;;;;;;16.17;63.12;102321.94;4961247;28;20050;-66
2022/07/08 05:16:31;;;;;;;7.45;1.58;;;;;;;16.16;63.38;102325.56;4965241;28;20040;-67
2022/07/08 05:18:56;;;;;;;8.13;2.10;;;;;;;16.17;63.60;102338.78;4961721;28;20022;-67
2022/07/08 05:21:22;;;;;;;3.35;1.40;;;;;;;16.17;63.42;102346.78;4947291;28;20312;-67
2022/07/08 05:23:47;;;;;;;4.40;1.75;;;;;;;16.16;62.21;102339.78;4944691;28;20518;-65
2022/07/08 05:26:13;;;;;;;6.85;1.90;;;;;;;16.13;62.49;102345.38;4944076;28;20002;-67
2022/07/08 05:28:38;;;;;;;6.55;2.17;;;;;;;16.19;63.03;102347.53;4968800;28;20022;-66
2022/07/08 05:31:04;;;;;;;5.32;1.65;;;;;;;16.17;63.19;102335.28;4958702;28;20610;-67
2022/07/08 05:33:29;;;;;;;5.47;1.75;;;;;;;16.21;62.94;102342.88;4944296;28;21135;-65
2022/07/08 05:35:55;;;;;;;5.82;2.00;;;;;;;16.23;63.39;102348.94;4960438;28;20087;-67
2022/07/08 05:38:20;;;;;;;7.68;2.17;;;;;;;16.23;63.98;102346.28;4951450;28;20380;-65
2022/07/08 05:40:46;;;;;;;6.68;2.10;;;;;;;16.19;63.66;102349.31;4957496;28;20026;-66
2022/07/08 05:43:11;;;;;;;9.43;1.90;;;;;;;16.06;64.29;102350.44;4949623;28;20013;-65
2022/07/08 05:45:36;;;;;;;4.03;1.92;;;;;;;16.18;64.37;102347.66;4988299;28;20063;-66
2022/07/08 05:48:02;;;;;;;7.82;2.00;;;;;;;16.19;64.54;102349.31;4985939;28;20380;-66
2022/07/08 05:50:27;;;;;;;5.68;2.10;;;;;;;16.30;64.16;102354.56;4985190;28;20519;-66
2022/07/08 05:52:53;;;;;;;8.85;2.80;;;;;;;16.40;64.18;102362.63;4990017;28;20503;-66
2022/07/08 05:55:18;;;;;;;4.50;1.85;;;;;;;16.48;63.89;102365.47;4993517;28;20074;-67
2022/07/08 05:57:43;;;;;;;3.97;1.85;;;;;;;16.54;63.47;102353.38;4957508;28;20581;-66
2022/07/08 06:00:10;;;;;;;6.00;2.17;;;;;;;16.54;63.45;102354.25;4988950;28;20029;-66
2022/07/08 06:02:37;;;;;;;5.10;1.85;;;;;;;16.58;63.69;102366.38;4951549;28;20868;-67
2022/07/08 06:05:02;;;;;;;6.18;2.13;;;;;;;16.60;63.50;102366.22;4976633;28;20888;-66
2022/07/08 06:07:28;;;;;;;5.72;2.30;;;;;;;16.63;63.71;102363.28;4961289;28;20029;-65
2022/07/08 06:09:53;;;;;;;7.13;2.30;;;;;;;16.76;63.47;102374.53;4983048;28;21348;-66
2022/07/08 06:12:19;;;;;;;6.72;2.10;;;;;;;16.77;63.13;102365.56;4951570;28;20037;-66
2022/07/08 06:14:44;;;;;;;6.85;2.10;;;;;;;16.71;63.31;102371.47;4951819;28;20565;-66
2022/07/08 06:17:10;;;;;;;5.82;2.25;;;;;;;16.76;63.53;102369.19;4991021;28;20028;-66
2022/07/08 06:19:35;;;;;;;7.80;2.13;;;;;;;16.76;63.34;102366.53;4972461;28;20033;-68
2022/07/08 06:22:00;;;;;;;5.55;2.20;;;;;;;16.90;63.02;102375.19;4963785;28;20034;-67
2022/07/08 06:24:26;;;;;;;6.53;2.17;;;;;;;16.84;62.54;102376.53;4969008;28;20296;-66
2022/07/08 06:26:52;;;;;;;5.85;1.90;;;;;;;16.95;62.24;102367.56;4957301;28;20084;-67
2022/07/08 06:29:18;;;;;;;9.82;2.35;;;;;;;16.87;61.41;102370.91;4945901;28;20080;-67
2022/07/08 06:31:43;;;;;;;5.07;2.22;;;;;;;16.87;61.37;102370.09;4949298;28;20144;-65
2022/07/08 06:34:09;;;;;;;5.72;2.15;;;;;;;16.84;61.10;102376.53;4946718;28;20030;-68
2022/07/08 06:36:34;;;;;;;7.45;2.22;;;;;;;16.80;61.57;102372.44;4955367;28;20743;-65
2022/07/08 06:39:00;;;;;;;5.55;2.30;;;;;;;16.94;61.93;102376.59;4926769;28;20042;-66
2022/07/08 06:41:25;;;;;;;8.68;2.45;;;;;;;16.95;61.74;102383.59;4964278;28;20007;-66
2022/07/08 06:43:51;;;;;;;9.57;3.28;;;;;;;17.09;60.74;102380.56;4966033;28;20054;-67
2022/07/08 06:46:16;;;;;;;10.10;3.10;;;;;;;17.30;59.75;102382.22;4950259;28;20454;-68
2022/07/08 06:48:42;;;;;;;7.78;3.47;;;;;;;17.31;58.48;102390.13;4952035;28;20017;-66
2022/07/08 06:51:07;;;;;;;7.63;3.22;;;;;;;17.30;58.43;102388.44;4950967;28;20447;-66
2022/07/08 06:56:16;;;;;;;;;;;;;;;17.44;58.01;102391.66;4968829;28;20033;-66
2022/07/08 06:58:42;;;;;;;7.23;3.17;;;;;;;17.47;58.06;102394.06;4977425;28;19908;-66
2022/07/08 07:01:09;;;;;;;5.07;2.85;;;;;;;17.41;57.07;102387.44;4988032;28;20322;-66
2022/07/08 07:03:34;;;;;;;8.52;2.60;;;;;;;17.48;58.15;102396.59;4955646;28;20030;-67
2022/07/08 07:06:00;;;;;;;7.07;2.80;;;;;;;17.46;57.83;102409.28;4954626;28;20386;-65
2022/07/08 07:08:25;;;;;;;6.82;2.80;;;;;;;17.60;56.94;102401.81;4935359;28;20419;-66
2022/07/08 07:10:51;;;;;;;5.13;2.33;;;;;;;17.71;57.91;102401.66;4948486;28;20328;-67
2022/07/08 07:13:16;;;;;;;8.65;2.60;;;;;;;17.80;57.32;102403.47;4956145;28;20129;-66
2022/07/08 07:15:42;;;;;;;4.68;2.30;;;;;;;17.90;55.41;102399.94;4943687;28;20191;-67
2022/07/08 07:18:08;;;;;;;7.47;2.50;;;;;;;18.01;57.13;102397.94;4925863;28;20431;-66
2022/07/08 07:20:34;;;;;;;3.88;2.50;;;;;;;18.00;57.72;102392.75;4960541;28;20015;-66
2022/07/08 07:22:59;;;;;;;9.55;4.07;;;;;;;18.14;55.92;102400.31;4964453;28;20025;-66
2022/07/08 07:25:25;;;;;;;4.90;4.30;;;;;;;18.01;54.98;102391.75;4946090;28;20037;-66
2022/07/08 07:27:50;;;;;;;8.18;4.28;;;;;;;17.98;54.98;102400.09;4974286;28;20495;-66
2022/07/08 07:30:15;;;;;;;5.07;3.90;;;;;;;17.96;55.60;102397.53;4950432;28;20022;-66
2022/07/08 07:32:41;;;;;;;7.25;4.20;;;;;;;17.91;55.04;102393.59;4979103;28;20306;-67
2022/07/08 07:35:06;;;;;;;4.75;4.15;;;;;;;17.90;54.92;102392.72;4978991;28;20022;-67
2022/07/08 07:37:38;;;;;;;6.05;4.22;;;;;;;17.99;54.79;102399.94;4961198;28;20429;-66
2022/07/08 07:40:04;;;;;;;7.53;5.10;;;;;;;17.99;54.64;102399.09;4970485;28;20833;-65
2022/07/08 07:42:30;;;;;;;5.72;5.13;;;;;;;18.02;53.54;102412.19;4960763;28;20109;-66
2022/07/08 07:44:55;;;;;;;8.05;3.83;;;;;;;17.98;53.59;102413.47;4979259;28;20014;-66
2022/07/08 07:47:20;;;;;;;6.45;4.47;;;;;;;18.02;52.11;102415.72;4982977;28;20525;-66
2022/07/08 07:49:46;;;;;;;5.38;4.32;;;;;;;18.21;52.59;102410.47;4978481;28;20018;-66
2022/07/08 07:52:11;;;;;;;5.13;3.40;;;;;;;18.05;51.87;102411.91;4979567;28;20563;-67
2022/07/08 07:54:36;;;;;;;4.53;3.22;;;;;;;18.26;53.09;102410.84;4964042;28;20420;-65
2022/07/08 07:57:02;;;;;;;3.80;2.47;;;;;;;18.32;51.71;102412.94;4966541;28;20014;-66
2022/07/08 07:59:27;;;;;;;4.32;2.22;;;;;;;18.37;52.01;102418.69;4948194;28;20010;-65
2022/07/08 08:01:53;;;;;;;5.82;2.63;;;;;;;18.41;52.65;102417.41;4963823;28;20025;-66
2022/07/08 08:04:18;;;;;;;2.88;2.05;;;;;;;18.64;53.85;102403.63;4982638;28;20018;-65
2022/07/08 08:06:44;;;;;;;3.22;2.33;;;;;;;18.79;50.83;102412.84;4963192;28;20006;-66
2022/07/08 08:09:09;;;;;;;6.45;2.75;;;;;;;18.99;52.33;102415.44;4949526;28;20011;-65
2022/07/08 08:11:34;;;;;;;5.90;2.50;;;;;;;19.07;51.54;102414.69;4976925;28;20006;-66
2022/07/08 08:14:00;;;;;;;4.35;2.38;;;;;;;19.12;51.48;102415.94;4980375;28;20045;-66
2022/07/08 08:16:25;;;;;;;2.80;2.50;;;;;;;19.09;50.70;102418.88;4947230;28;20272;-66
2022/07/08 08:18:51;;;;;;;4.97;2.30;;;;;;;19.33;52.23;102417.44;4981669;28;20312;-66
2022/07/08 08:21:16;;;;;;;2.97;2.40;;;;;;;19.53;51.42;102418.97;4984936;28;20262;-66
2022/07/08 08:23:41;;;;;;;4.22;2.20;;;;;;;19.67;51.73;102414.91;4982179;28;20067;-66
2022/07/08 08:26:07;;;;;;;4.28;2.30;;;;;;;19.71;50.65;102412.72;4980944;28;20144;-66
2022/07/08 08:28:32;;;;;;;5.15;2.53;;;;;;;19.70;49.17;102419.94;4984830;28;20021;-68
2022/07/08 08:30:58;;;;;;;5.18;2.90;;;;;;;19.82;49.59;102409.81;4978269;28;20033;-66
2022/07/08 08:33:23;;;;;;;4.63;2.80;;;;;;;19.88;50.30;102419.97;4970729;28;20870;-66
2022/07/08 08:35:48;;;;;;;2.95;2.55;;;;;;;20.01;48.61;102408.78;4944613;28;20052;-66
2022/07/08 08:38:14;;;;;;;3.55;2.67;;;;;;;20.30;51.18;102422.88;4964488;28;20079;-66
2022/07/08 08:40:41;;;;;;;3.97;2.47;;;;;;;20.45;49.33;102420.41;4942436;28;20011;-67
2022/07/08 08:43:06;;;;;;;4.70;2.20;;;;;;;20.32;48.17;102423.53;4975943;28;20010;-66
2022/07/08 08:45:32;;;;;;;2.72;1.95;;;;;;;20.28;47.98;102414.13;4965024;28;20308;-66
2022/07/08 08:47:59;;;;;;;5.05;2.20;;;;;;;20.03;46.92;102414.00;4963030;28;20064;-66
2022/07/08 08:53:08;;;;;;;4.53;1.90;;;;;;;19.97;48.77;102411.94;4965584;28;20476;-66
2022/07/08 08:55:34;;;;;;;4.85;2.00;;;;;;;19.46;48.79;102409.88;4962266;28;20771;-66
2022/07/08 08:58:03;;;;;;;4.88;2.08;;;;;;;19.37;49.80;102405.41;4945982;28;20022;-67
2022/07/08 09:00:29;;;;;;;4.80;2.28;;;;;;;19.26;48.67;102406.47;4970628;28;20956;-65
2022/07/08 09:02:55;;;;;;;4.03;2.10;;;;;;;19.40;50.25;102405.09;4945596;28;20965;-66
2022/07/08 09:05:21;;;;;;;6.10;2.20;;;;;;;19.64;48.97;102406.28;4967687;28;20090;-66
2022/07/08 09:07:46;;;;;;;6.50;2.78;;;;;;;19.96;49.12;102416.47;4967129;28;20040;-66
2022/07/08 09:10:13;;;;;;;3.17;2.40;;;;;;;20.16;47.40;102417.09;4981733;28;20390;-66
2022/07/08 09:12:39;;;;;;;4.38;2.42;;;;;;;20.30;47.03;102418.34;4961447;28;20042;-66
2022/07/08 09:15:05;;;;;;;8.02;2.85;;;;;;;20.38;48.42;102417.56;4977685;28;20594;-67
2022/07/08 09:17:30;;;;;;;4.43;2.50;;;;;;;20.22;48.88;102416.47;4960688;28;20030;-66
2022/07/08 09:19:55;;;;;;;4.20;2.50;;;;;;;19.99;48.71;102420.69;4983221;28;20022;-66
2022/07/08 09:22:22;;;;;;;4.03;2.60;;;;;;;20.31;48.44;102414.66;4985199;28;20053;-66
2022/07/08 09:24:47;;;;;;;5.95;2.67;;;;;;;20.42;47.37;102419.75;4964934;28;20038;-67
2022/07/08 09:27:13;;;;;;;3.67;2.55;;;;;;;20.64;46.97;102413.94;4981997;28;20142;-65
2022/07/08 09:29:55;;;;;;;4.78;2.53;;;;;;;20.88;47.41;102414.06;4945652;28;20022;-66
2022/07/08 09:32:20;;;;;;;6.63;2.90;;;;;;;21.03;45.51;102421.50;4966409;28;20042;-67
2022/07/08 09:34:46;;;;;;;6.07;2.80;;;;;;;21.15;45.06;102422.88;4980431;28;20010;-66
2022/07/08 09:37:12;;;;;;;4.03;2.40;;;;;;;21.43;45.42;102420.72;4981537;28;20253;-67
2022/07/08 09:39:38;;;;;;;6.13;3.10;;;;;;;21.56;45.64;102406.75;4979905;28;20025;-66
2022/07/08 09:42:10;;;;;;;6.45;2.47;;;;;;;21.91;45.23;102407.41;4942192;28;20053;-66
2022/07/08 09:44:36;;;;;;;6.15;2.55;;;;;;;21.86;43.75;102409.75;4964930;28;21041;-67
2022/07/08 09:47:08;;;;;;;3.80;2.30;;;;;;;21.74;43.54;102403.03;4962820;28;20108;-65
2022/07/08 09:49:34;;;;;;;4.03;2.28;;;;;;;21.90;44.37;102399.47;4951318;28;20010;-66
2022/07/08 09:51:59;;;;;;;6.00;2.30;;;;;;;21.94;43.51;102400.78;4951341;28;20079;-66
2022/07/08 09:54:26;;;;;;;5.97;2.30;;;;;;;22.37;43.60;102401.38;4965188;28;20045;-66
2022/07/08 09:57:02;;;;;;;6.68;2.63;;;;;;;22.68;44.49;102405.13;4953005;28;20701;-66
2022/07/08 09:59:28;;;;;;;3.70;2.20;;;;;;;22.95;41.53;102399.22;4951046;28;20351;-66
2022/07/08 10:01:53;;;;;;;3.53;1.88;;;;;;;23.19;42.67;102408.19;4967788;28;20097;-65
2022/07/08 10:04:19;;;;;;;4.50;2.25;;;;;;;23.24;42.69;102405.81;4966367;28;20375;-66
2022/07/08 10:06:45;;;;;;;4.50;2.15;;;;;;;23.27;40.31;102401.91;4953624;28;20094;-65
2022/07/08 10:09:11;;;;;;;3.67;1.90;;;;;;;23.25;42.02;102410.19;4948296;28;20010;-67
2022/07/08 10:11:37;;;;;;;3.72;1.98;;;;;;;23.59;41.60;102408.03;4994320;28;20545;-66
2022/07/08 10:14:04;;;;;;;3.97;2.20;;;;;;;23.69;43.03;102402.38;4974453;28;20022;-67
2022/07/08 10:16:29;;;;;;;5.78;2.20;;;;;;;24.25;41.14;102396.56;4959093;28;20567;-66
2022/07/08 10:18:54;;;;;;;4.47;2.00;;;;;;;24.42;39.06;102405.31;4952469;28;20017;-65
2022/07/08 10:21:21;;;;;;;3.25;2.00;;;;;;;24.05;40.53;102407.13;4947302;28;20026;-66
2022/07/08 10:23:49;;;;;;;5.10;1.83;;;;;;;24.04;40.36;102402.72;4951267;28;20028;-65
2022/07/08 10:26:40;;;;;;;5.25;1.92;;;;;;;24.70;40.24;102391.94;4953110;28;20292;-65
2022/07/08 10:29:12;;;;;;;3.22;2.00;;;;;;;24.82;39.65;102393.13;4958917;28;20586;-67
2022/07/08 10:31:48;;;;;;;2.92;2.00;;;;;;;24.88;38.92;102396.13;4963483;28;20580;-65
2022/07/08 10:34:16;;;;;;;6.03;2.20;;;;;;;25.35;37.71;102395.56;4946825;28;20057;-65
2022/07/08 10:36:50;;;;;;;4.18;1.77;;;;;;;25.45;37.68;102389.78;4934258;28;20003;-65
2022/07/08 10:39:25;;;;;;;;;;;;;;;25.75;38.47;102386.91;4929070;28;20029;-65
2022/07/08 10:42:01;;;;;;;4.25;2.08;;;;;;;26.53;35.89;102385.84;4960424;28;19985;-66
2022/07/08 10:44:42;;;;;;;3.53;1.70;;;;;;;26.23;38.52;102388.88;4941105;28;20080;-65
2022/07/08 10:47:11;;;;;;;3.63;1.80;;;;;;;26.34;38.61;102382.88;4951706;28;20857;-66
2022/07/08 10:50:04;;;;;;;3.63;1.90;;;;;;;25.34;38.47;102383.03;4960746;28;20025;-66
2022/07/08 10:52:48;;;;;;;3.28;1.65;;;;;;;25.84;38.11;102387.56;4941862;28;20934;-65
2022/07/08 10:55:15;;;;;;;2.60;1.48;;;;;;;26.33;38.05;102383.91;4931306;28;20259;-66
2022/07/08 10:57:54;;;;;;;4.93;1.65;;;;;;;26.96;38.36;102380.16;4950918;28;20014;-66
2022/07/08 11:00:19;;;;;;;2.90;1.60;;;;;;;26.95;36.43;102388.47;4943372;28;20028;-66
2022/07/08 11:02:45;;;;;;;3.88;1.75;;;;;;;26.82;34.56;102381.16;4948319;28;20345;-66
2022/07/08 11:05:39;;;;;;;6.55;1.88;;;;;;;26.87;35.53;102386.81;4929319;28;20083;-65
2022/07/08 11:08:34;;;;;;;3.95;1.60;;;;;;;26.14;35.47;102376.50;4942649;28;20019;-67
2022/07/08 11:11:02;;;;;;;2.22;1.50;;;;;;;26.54;36.09;102377.50;4927898;28;20021;-66
2022/07/08 11:13:28;;;;;;;4.25;1.50;;;;;;;27.37;35.28;102381.88;4966990;28;20410;-66
2022/07/08 11:15:53;;;;;;;3.65;1.65;;;;;;;27.49;33.10;102375.81;4946476;28;20538;-66
2022/07/08 11:18:22;;;;;;;4.97;1.75;;;;;;;27.36;35.09;102374.75;4961534;28;20018;-68
2022/07/08 11:20:48;;;;;;;3.55;1.50;;;;;;;28.09;35.54;102376.53;4942043;28;20077;-67
2022/07/08 11:23:16;;;;;;;1.95;1.40;;;;;;;28.33;35.71;102382.31;4978722;28;20185;-66
2022/07/08 11:25:41;;;;;;;5.22;2.00;;;;;;;28.71;35.08;102376.06;4929983;28;20074;-67
2022/07/08 11:28:24;;;;;;;5.70;2.00;;;;;;;28.16;34.16;102373.81;4948723;28;20706;-67
2022/07/08 11:30:49;;;;;;;5.50;1.92;;;;;;;28.54;34.60;102369.41;4952126;28;20067;-66